sensor_id;sensor_type;location;lat;lon;timestamp;P1;durP1;ratioP1;P2;durP2;ratioP2
48963;SDS011;34776;48.180;16.420;2023-05-29T00:00:13;6.72;;;4.80;;
48963;SDS011;34776;48.180;16.420;2023-05-29T00:02:43;5.25;;;4.25;;
48963;SDS011;34776;48.180;16.420;2023-05-29T00:05:09;5.57;;;4.05;;
48963;SDS011;34776;48.180;16.420;2023-05-29T00:07:36;8.30;;;4.28;;
48963;SDS011;34776;48.180;16.420;2023-05-29T00:10:02;11.30;;;4.20;;
48963;SDS011;34776;48.180;16.420;2023-05-29T00:12:29;7.13;;;4.53;;
48963;SDS011;34776;48.180;16.420;2023-05-29T00:14:54;7.95;;;5.22;;
48963;SDS011;34776;48.180;16.420;2023-05-29T00:17:20;6.90;;;5.05;;
48963;SDS011;34776;48.180;16.420;2023-05-29T00:19:45;6.15;;;4.20;;
48963;SDS011;34776;48.180;16.420;2023-05-29T00:22:11;6.03;;;4.53;;
48963;SDS011;34776;48.180;16.420;2023-05-29T00:24:37;6.25;;;4.20;;
48963;SDS011;34776;48.180;16.420;2023-05-29T00:27:03;6.05;;;4.53;;
48963;SDS011;34776;48.180;16.420;2023-05-29T00:29:28;6.18;;;5.28;;
48963;SDS011;34776;48.180;16.420;2023-05-29T00:31:54;6.57;;;4.47;;
48963;SDS011;34776;48.180;16.420;2023-05-29T00:34:21;7.90;;;5.20;;
48963;SDS011;34776;48.180;16.420;2023-05-29T00:36:48;6.93;;;4.68;;
48963;SDS011;34776;48.180;16.420;2023-05-29T00:39:14;6.28;;;4.75;;
48963;SDS011;34776;48.180;16.420;2023-05-29T00:41:40;8.52;;;4.43;;
48963;SDS011;34776;48.180;16.420;2023-05-29T00:44:05;7.22;;;4.50;;
48963;SDS011;34776;48.180;16.420;2023-05-29T00:46:31;10.82;;;5.90;;
48963;SDS011;34776;48.180;16.420;2023-05-29T00:48:57;9.63;;;5.97;;
48963;SDS011;34776;48.180;16.420;2023-05-29T00:51:26;7.25;;;5.20;;
48963;SDS011;34776;48.180;16.420;2023-05-29T00:53:53;5.63;;;4.78;;
48963;SDS011;34776;48.180;16.420;2023-05-29T00:56:20;6.50;;;4.63;;
48963;SDS011;34776;48.180;16.420;2023-05-29T00:58:49;8.18;;;4.40;;
48963;SDS011;34776;48.180;16.420;2023-05-29T01:01:20;5.10;;;4.13;;
48963;SDS011;34776;48.180;16.420;2023-05-29T01:03:49;6.55;;;4.47;;
48963;SDS011;34776;48.180;16.420;2023-05-29T01:06:15;6.22;;;4.65;;
48963;SDS011;34776;48.180;16.420;2023-05-29T01:08:40;8.60;;;5.20;;
48963;SDS011;34776;48.180;16.420;2023-05-29T01:11:26;6.57;;;4.65;;
48963;SDS011;34776;48.180;16.420;2023-05-29T01:14:19;6.53;;;4.45;;
48963;SDS011;34776;48.180;16.420;2023-05-29T01:17:10;8.70;;;5.05;;
48963;SDS011;34776;48.180;16.420;2023-05-29T01:20:18;5.80;;;4.40;;
48963;SDS011;34776;48.180;16.420;2023-05-29T01:28:35;6.85;;;5.10;;
48963;SDS011;34776;48.180;16.420;2023-05-29T01:31:06;8.00;;;4.90;;
48963;SDS011;34776;48.180;16.420;2023-05-29T01:33:32;8.68;;;4.80;;
48963;SDS011;34776;48.180;16.420;2023-05-29T01:35:58;9.20;;;5.60;;
48963;SDS011;34776;48.180;16.420;2023-05-29T01:38:23;10.15;;;5.30;;
48963;SDS011;34776;48.180;16.420;2023-05-29T01:40:49;6.97;;;4.90;;
48963;SDS011;34776;48.180;16.420;2023-05-29T01:43:15;6.88;;;5.13;;
48963;SDS011;34776;48.180;16.420;2023-05-29T01:45:40;7.15;;;4.97;;
48963;SDS011;34776;48.180;16.420;2023-05-29T01:48:06;6.85;;;4.55;;
48963;SDS011;34776;48.180;16.420;2023-05-29T01:50:32;5.88;;;4.53;;
48963;SDS011;34776;48.180;16.420;2023-05-29T01:52:58;6.22;;;4.45;;
48963;SDS011;34776;48.180;16.420;2023-05-29T01:55:23;6.10;;;4.80;;
48963;SDS011;34776;48.180;16.420;2023-05-29T01:57:48;6.00;;;4.55;;
48963;SDS011;34776;48.180;16.420;2023-05-29T02:00:15;8.05;;;4.85;;
48963;SDS011;34776;48.180;16.420;2023-05-29T02:02:41;10.10;;;4.88;;
48963;SDS011;34776;48.180;16.420;2023-05-29T02:05:07;7.95;;;4.72;;
48963;SDS011;34776;48.180;16.420;2023-05-29T02:07:34;8.82;;;4.85;;
48963;SDS011;34776;48.180;16.420;2023-05-29T02:10:01;8.65;;;4.90;;
48963;SDS011;34776;48.180;16.420;2023-05-29T02:12:27;6.93;;;4.80;;
48963;SDS011;34776;48.180;16.420;2023-05-29T02:14:53;8.75;;;5.05;;
48963;SDS011;34776;48.180;16.420;2023-05-29T02:17:18;6.15;;;4.80;;
48963;SDS011;34776;48.180;16.420;2023-05-29T02:19:44;8.55;;;5.18;;
48963;SDS011;34776;48.180;16.420;2023-05-29T02:22:09;8.75;;;5.25;;
48963;SDS011;34776;48.180;16.420;2023-05-29T02:24:35;7.05;;;4.95;;
48963;SDS011;34776;48.180;16.420;2023-05-29T02:27:00;5.78;;;4.30;;
48963;SDS011;34776;48.180;16.420;2023-05-29T02:29:26;8.40;;;4.75;;
48963;SDS011;34776;48.180;16.420;2023-05-29T02:31:51;7.38;;;4.82;;
48963;SDS011;34776;48.180;16.420;2023-05-29T02:34:16;6.97;;;4.07;;
48963;SDS011;34776;48.180;16.420;2023-05-29T02:36:41;10.73;;;4.97;;
48963;SDS011;34776;48.180;16.420;2023-05-29T02:39:07;7.05;;;4.50;;
48963;SDS011;34776;48.180;16.420;2023-05-29T02:41:32;6.90;;;4.55;;
48963;SDS011;34776;48.180;16.420;2023-05-29T02:43:57;5.43;;;4.30;;
48963;SDS011;34776;48.180;16.420;2023-05-29T02:46:23;8.65;;;4.65;;
48963;SDS011;34776;48.180;16.420;2023-05-29T02:48:48;7.05;;;4.28;;
48963;SDS011;34776;48.180;16.420;2023-05-29T02:51:13;5.75;;;4.43;;
48963;SDS011;34776;48.180;16.420;2023-05-29T02:53:39;6.00;;;4.07;;
48963;SDS011;34776;48.180;16.420;2023-05-29T02:56:05;8.20;;;4.15;;
48963;SDS011;34776;48.180;16.420;2023-05-29T02:58:33;7.38;;;4.38;;
48963;SDS011;34776;48.180;16.420;2023-05-29T03:01:00;6.47;;;4.00;;
48963;SDS011;34776;48.180;16.420;2023-05-29T03:03:27;6.93;;;4.57;;
48963;SDS011;34776;48.180;16.420;2023-05-29T03:05:52;8.82;;;4.00;;
48963;SDS011;34776;48.180;16.420;2023-05-29T03:08:18;7.13;;;4.22;;
48963;SDS011;34776;48.180;16.420;2023-05-29T03:10:43;4.95;;;4.07;;
48963;SDS011;34776;48.180;16.420;2023-05-29T03:13:09;5.57;;;4.07;;
48963;SDS011;34776;48.180;16.420;2023-05-29T03:15:35;7.45;;;4.35;;
48963;SDS011;34776;48.180;16.420;2023-05-29T03:18:00;7.28;;;4.13;;
48963;SDS011;34776;48.180;16.420;2023-05-29T03:20:25;6.03;;;4.20;;
48963;SDS011;34776;48.180;16.420;2023-05-29T03:22:51;5.53;;;3.90;;
48963;SDS011;34776;48.180;16.420;2023-05-29T03:25:16;8.45;;;4.45;;
48963;SDS011;34776;48.180;16.420;2023-05-29T03:27:42;7.55;;;4.45;;
48963;SDS011;34776;48.180;16.420;2023-05-29T03:30:08;5.20;;;3.90;;
48963;SDS011;34776;48.180;16.420;2023-05-29T03:32:34;6.13;;;4.40;;
48963;SDS011;34776;48.180;16.420;2023-05-29T03:34:59;6.75;;;4.53;;
48963;SDS011;34776;48.180;16.420;2023-05-29T03:37:25;7.40;;;4.40;;
48963;SDS011;34776;48.180;16.420;2023-05-29T03:39:50;4.95;;;3.92;;
48963;SDS011;34776;48.180;16.420;2023-05-29T03:42:16;8.57;;;4.20;;
48963;SDS011;34776;48.180;16.420;2023-05-29T03:44:41;6.03;;;4.53;;
48963;SDS011;34776;48.180;16.420;2023-05-29T03:47:07;5.20;;;4.20;;
48963;SDS011;34776;48.180;16.420;2023-05-29T03:49:33;5.10;;;4.20;;
48963;SDS011;34776;48.180;16.420;2023-05-29T03:51:59;9.02;;;4.07;;
48963;SDS011;34776;48.180;16.420;2023-05-29T03:54:25;5.78;;;4.30;;
48963;SDS011;34776;48.180;16.420;2023-05-29T03:56:51;6.70;;;4.43;;
48963;SDS011;34776;48.180;16.420;2023-05-29T03:59:16;4.57;;;4.10;;
48963;SDS011;34776;48.180;16.420;2023-05-29T04:01:41;5.82;;;4.10;;
48963;SDS011;34776;48.180;16.420;2023-05-29T04:04:07;6.80;;;3.92;;
48963;SDS011;34776;48.180;16.420;2023-05-29T04:06:32;7.25;;;4.13;;
48963;SDS011;34776;48.180;16.420;2023-05-29T04:08:58;8.93;;;4.35;;
48963;SDS011;34776;48.180;16.420;2023-05-29T04:11:23;9.45;;;4.10;;
48963;SDS011;34776;48.180;16.420;2023-05-29T04:13:49;5.90;;;4.10;;
48963;SDS011;34776;48.180;16.420;2023-05-29T04:16:15;7.60;;;4.68;;
48963;SDS011;34776;48.180;16.420;2023-05-29T04:18:40;7.35;;;4.30;;
48963;SDS011;34776;48.180;16.420;2023-05-29T04:21:06;7.05;;;4.20;;
48963;SDS011;34776;48.180;16.420;2023-05-29T04:23:32;5.97;;;3.78;;
48963;SDS011;34776;48.180;16.420;2023-05-29T04:25:57;8.48;;;4.95;;
48963;SDS011;34776;48.180;16.420;2023-05-29T04:28:23;7.35;;;4.32;;
48963;SDS011;34776;48.180;16.420;2023-05-29T04:30:49;7.13;;;4.50;;
48963;SDS011;34776;48.180;16.420;2023-05-29T04:33:14;5.45;;;4.55;;
48963;SDS011;34776;48.180;16.420;2023-05-29T04:35:42;6.82;;;4.30;;
48963;SDS011;34776;48.180;16.420;2023-05-29T04:38:10;5.60;;;4.03;;
48963;SDS011;34776;48.180;16.420;2023-05-29T04:40:35;6.97;;;4.03;;
48963;SDS011;34776;48.180;16.420;2023-05-29T04:43:05;5.53;;;4.03;;
48963;SDS011;34776;48.180;16.420;2023-05-29T04:45:31;9.80;;;4.75;;
48963;SDS011;34776;48.180;16.420;2023-05-29T04:47:56;7.85;;;4.18;;
48963;SDS011;34776;48.180;16.420;2023-05-29T04:50:21;7.32;;;4.47;;
48963;SDS011;34776;48.180;16.420;2023-05-29T04:52:48;6.50;;;3.85;;
48963;SDS011;34776;48.180;16.420;2023-05-29T04:55:13;6.50;;;4.25;;
48963;SDS011;34776;48.180;16.420;2023-05-29T04:57:39;5.90;;;4.35;;
48963;SDS011;34776;48.180;16.420;2023-05-29T05:00:05;8.02;;;4.65;;
48963;SDS011;34776;48.180;16.420;2023-05-29T05:02:33;6.03;;;4.30;;
48963;SDS011;34776;48.180;16.420;2023-05-29T05:04:58;6.10;;;4.20;;
48963;SDS011;34776;48.180;16.420;2023-05-29T05:07:24;5.57;;;4.40;;
48963;SDS011;34776;48.180;16.420;2023-05-29T05:09:49;7.65;;;4.50;;
48963;SDS011;34776;48.180;16.420;2023-05-29T05:12:14;5.82;;;3.85;;
48963;SDS011;34776;48.180;16.420;2023-05-29T05:14:40;6.68;;;4.60;;
48963;SDS011;34776;48.180;16.420;2023-05-29T05:17:06;8.82;;;4.25;;
48963;SDS011;34776;48.180;16.420;2023-05-29T05:19:31;8.30;;;4.47;;
48963;SDS011;34776;48.180;16.420;2023-05-29T05:21:56;6.70;;;3.90;;
48963;SDS011;34776;48.180;16.420;2023-05-29T05:24:22;13.07;;;4.68;;
48963;SDS011;34776;48.180;16.420;2023-05-29T05:26:47;6.57;;;4.78;;
48963;SDS011;34776;48.180;16.420;2023-05-29T05:29:13;6.15;;;4.43;;
48963;SDS011;34776;48.180;16.420;2023-05-29T05:31:38;6.68;;;4.75;;
48963;SDS011;34776;48.180;16.420;2023-05-29T05:34:04;8.20;;;4.57;;
48963;SDS011;34776;48.180;16.420;2023-05-29T05:36:29;6.28;;;3.70;;
48963;SDS011;34776;48.180;16.420;2023-05-29T05:38:56;5.80;;;4.20;;
48963;SDS011;34776;48.180;16.420;2023-05-29T05:41:21;7.28;;;3.67;;
48963;SDS011;34776;48.180;16.420;2023-05-29T05:43:47;5.03;;;4.18;;
48963;SDS011;34776;48.180;16.420;2023-05-29T05:46:12;7.57;;;4.13;;
48963;SDS011;34776;48.180;16.420;2023-05-29T05:48:39;10.02;;;4.10;;
48963;SDS011;34776;48.180;16.420;2023-05-29T05:51:05;5.53;;;3.78;;
48963;SDS011;34776;48.180;16.420;2023-05-29T05:53:31;6.65;;;4.00;;
48963;SDS011;34776;48.180;16.420;2023-05-29T05:55:56;9.43;;;4.47;;
48963;SDS011;34776;48.180;16.420;2023-05-29T05:58:21;10.57;;;4.60;;
48963;SDS011;34776;48.180;16.420;2023-05-29T06:00:47;5.68;;;4.07;;
48963;SDS011;34776;48.180;16.420;2023-05-29T06:03:12;7.80;;;5.30;;
48963;SDS011;34776;48.180;16.420;2023-05-29T06:05:37;5.30;;;4.80;;
48963;SDS011;34776;48.180;16.420;2023-05-29T06:08:05;6.95;;;3.97;;
48963;SDS011;34776;48.180;16.420;2023-05-29T06:10:31;5.05;;;3.67;;
48963;SDS011;34776;48.180;16.420;2023-05-29T06:12:56;7.60;;;4.13;;
48963;SDS011;34776;48.180;16.420;2023-05-29T06:15:22;5.43;;;3.58;;
48963;SDS011;34776;48.180;16.420;2023-05-29T06:17:47;5.15;;;3.42;;
48963;SDS011;34776;48.180;16.420;2023-05-29T06:20:13;5.70;;;4.78;;
48963;SDS011;34776;48.180;16.420;2023-05-29T06:22:38;9.85;;;4.13;;
48963;SDS011;34776;48.180;16.420;2023-05-29T06:25:04;6.50;;;3.97;;
48963;SDS011;34776;48.180;16.420;2023-05-29T06:27:30;6.60;;;3.75;;
48963;SDS011;34776;48.180;16.420;2023-05-29T06:29:55;4.60;;;2.70;;
48963;SDS011;34776;48.180;16.420;2023-05-29T06:32:20;7.57;;;3.20;;
48963;SDS011;34776;48.180;16.420;2023-05-29T06:34:46;8.95;;;3.60;;
48963;SDS011;34776;48.180;16.420;2023-05-29T06:37:12;5.25;;;3.47;;
48963;SDS011;34776;48.180;16.420;2023-05-29T06:39:37;9.43;;;3.30;;
48963;SDS011;34776;48.180;16.420;2023-05-29T06:42:06;7.70;;;3.50;;
48963;SDS011;34776;48.180;16.420;2023-05-29T06:44:32;12.18;;;8.57;;
48963;SDS011;34776;48.180;16.420;2023-05-29T06:46:58;6.13;;;3.65;;
48963;SDS011;34776;48.180;16.420;2023-05-29T06:49:23;4.68;;;3.20;;
48963;SDS011;34776;48.180;16.420;2023-05-29T06:51:48;5.90;;;3.13;;
48963;SDS011;34776;48.180;16.420;2023-05-29T06:54:14;3.43;;;2.43;;
48963;SDS011;34776;48.180;16.420;2023-05-29T06:56:39;4.50;;;2.78;;
48963;SDS011;34776;48.180;16.420;2023-05-29T06:59:04;4.63;;;2.92;;
48963;SDS011;34776;48.180;16.420;2023-05-29T07:01:30;4.43;;;3.33;;
48963;SDS011;34776;48.180;16.420;2023-05-29T07:03:55;5.85;;;3.10;;
48963;SDS011;34776;48.180;16.420;2023-05-29T07:06:21;3.78;;;2.55;;
48963;SDS011;34776;48.180;16.420;2023-05-29T07:08:46;4.35;;;2.47;;
48963;SDS011;34776;48.180;16.420;2023-05-29T07:11:11;6.30;;;2.63;;
48963;SDS011;34776;48.180;16.420;2023-05-29T07:13:37;6.57;;;2.65;;
48963;SDS011;34776;48.180;16.420;2023-05-29T07:16:02;4.50;;;3.10;;
48963;SDS011;34776;48.180;16.420;2023-05-29T07:18:27;6.65;;;3.90;;
48963;SDS011;34776;48.180;16.420;2023-05-29T07:20:55;7.35;;;2.83;;
48963;SDS011;34776;48.180;16.420;2023-05-29T07:23:21;5.60;;;2.97;;
48963;SDS011;34776;48.180;16.420;2023-05-29T07:25:46;5.93;;;3.33;;
48963;SDS011;34776;48.180;16.420;2023-05-29T07:28:12;4.28;;;2.65;;
48963;SDS011;34776;48.180;16.420;2023-05-29T07:30:37;4.20;;;2.90;;
48963;SDS011;34776;48.180;16.420;2023-05-29T07:33:02;4.32;;;2.80;;
48963;SDS011;34776;48.180;16.420;2023-05-29T07:35:28;3.88;;;2.60;;
48963;SDS011;34776;48.180;16.420;2023-05-29T07:37:53;6.07;;;2.97;;
48963;SDS011;34776;48.180;16.420;2023-05-29T07:40:19;9.50;;;2.97;;
48963;SDS011;34776;48.180;16.420;2023-05-29T07:42:44;5.35;;;2.60;;
48963;SDS011;34776;48.180;16.420;2023-05-29T07:45:10;6.53;;;3.65;;
48963;SDS011;34776;48.180;16.420;2023-05-29T07:47:36;5.82;;;2.80;;
48963;SDS011;34776;48.180;16.420;2023-05-29T07:50:01;4.32;;;2.53;;
48963;SDS011;34776;48.180;16.420;2023-05-29T07:52:27;3.85;;;2.85;;
48963;SDS011;34776;48.180;16.420;2023-05-29T07:54:52;6.33;;;3.43;;
48963;SDS011;34776;48.180;16.420;2023-05-29T07:57:18;7.22;;;2.60;;
48963;SDS011;34776;48.180;16.420;2023-05-29T07:59:43;4.68;;;2.72;;
48963;SDS011;34776;48.180;16.420;2023-05-29T08:02:09;4.40;;;2.50;;
48963;SDS011;34776;48.180;16.420;2023-05-29T08:04:34;5.72;;;2.95;;
48963;SDS011;34776;48.180;16.420;2023-05-29T08:07:01;4.63;;;2.80;;
48963;SDS011;34776;48.180;16.420;2023-05-29T08:09:28;5.00;;;2.70;;
48963;SDS011;34776;48.180;16.420;2023-05-29T08:11:54;3.33;;;2.05;;
48963;SDS011;34776;48.180;16.420;2023-05-29T08:14:19;6.15;;;3.83;;
48963;SDS011;34776;48.180;16.420;2023-05-29T08:16:45;6.20;;;2.78;;
48963;SDS011;34776;48.180;16.420;2023-05-29T08:19:10;5.65;;;2.67;;
48963;SDS011;34776;48.180;16.420;2023-05-29T08:21:35;5.30;;;2.33;;
48963;SDS011;34776;48.180;16.420;2023-05-29T08:24:02;5.15;;;2.85;;
48963;SDS011;34776;48.180;16.420;2023-05-29T08:26:30;8.93;;;3.05;;
48963;SDS011;34776;48.180;16.420;2023-05-29T08:28:55;4.60;;;2.70;;
48963;SDS011;34776;48.180;16.420;2023-05-29T08:31:21;5.57;;;2.78;;
48963;SDS011;34776;48.180;16.420;2023-05-29T08:33:49;6.53;;;2.70;;
48963;SDS011;34776;48.180;16.420;2023-05-29T08:36:14;4.70;;;2.65;;
48963;SDS011;34776;48.180;16.420;2023-05-29T08:38:40;4.85;;;2.80;;
48963;SDS011;34776;48.180;16.420;2023-05-29T08:41:05;3.43;;;2.53;;
48963;SDS011;34776;48.180;16.420;2023-05-29T08:43:32;5.00;;;3.15;;
48963;SDS011;34776;48.180;16.420;2023-05-29T08:46:01;4.93;;;3.10;;
48963;SDS011;34776;48.180;16.420;2023-05-29T08:48:28;5.32;;;2.97;;
48963;SDS011;34776;48.180;16.420;2023-05-29T08:50:56;4.97;;;3.05;;
48963;SDS011;34776;48.180;16.420;2023-05-29T08:53:22;6.57;;;3.13;;
48963;SDS011;34776;48.180;16.420;2023-05-29T08:55:49;5.05;;;3.08;;
48963;SDS011;34776;48.180;16.420;2023-05-29T08:58:16;4.80;;;2.80;;
48963;SDS011;34776;48.180;16.420;2023-05-29T09:00:43;7.20;;;2.67;;
48963;SDS011;34776;48.180;16.420;2023-05-29T09:03:10;10.43;;;3.13;;
48963;SDS011;34776;48.180;16.420;2023-05-29T09:05:38;3.95;;;2.90;;
48963;SDS011;34776;48.180;16.420;2023-05-29T09:08:05;6.18;;;3.08;;
48963;SDS011;34776;48.180;16.420;2023-05-29T09:10:32;3.80;;;2.70;;
48963;SDS011;34776;48.180;16.420;2023-05-29T09:12:58;8.10;;;2.78;;
48963;SDS011;34776;48.180;16.420;2023-05-29T09:15:23;6.15;;;3.00;;
48963;SDS011;34776;48.180;16.420;2023-05-29T09:17:52;4.90;;;3.20;;
48963;SDS011;34776;48.180;16.420;2023-05-29T09:20:19;4.95;;;2.92;;
48963;SDS011;34776;48.180;16.420;2023-05-29T09:22:55;5.28;;;3.08;;
48963;SDS011;34776;48.180;16.420;2023-05-29T09:25:22;9.37;;;3.13;;
48963;SDS011;34776;48.180;16.420;2023-05-29T09:28:00;6.45;;;2.80;;
48963;SDS011;34776;48.180;16.420;2023-05-29T09:32:58;6.47;;;2.70;;
48963;SDS011;34776;48.180;16.420;2023-05-29T09:35:25;5.00;;;2.90;;
48963;SDS011;34776;48.180;16.420;2023-05-29T09:37:50;4.97;;;3.28;;
48963;SDS011;34776;48.180;16.420;2023-05-29T09:40:16;8.05;;;2.70;;
48963;SDS011;34776;48.180;16.420;2023-05-29T09:42:41;4.40;;;2.97;;
48963;SDS011;34776;48.180;16.420;2023-05-29T09:45:06;8.57;;;3.00;;
48963;SDS011;34776;48.180;16.420;2023-05-29T09:47:33;5.88;;;2.97;;
48963;SDS011;34776;48.180;16.420;2023-05-29T09:50:00;3.47;;;2.80;;
48963;SDS011;34776;48.180;16.420;2023-05-29T09:52:26;8.10;;;2.90;;
48963;SDS011;34776;48.180;16.420;2023-05-29T09:54:55;3.80;;;2.70;;
48963;SDS011;34776;48.180;16.420;2023-05-29T09:57:21;6.43;;;2.65;;
48963;SDS011;34776;48.180;16.420;2023-05-29T09:59:48;3.53;;;2.47;;
48963;SDS011;34776;48.180;16.420;2023-05-29T10:02:16;5.93;;;2.65;;
48963;SDS011;34776;48.180;16.420;2023-05-29T10:04:43;4.75;;;3.00;;
48963;SDS011;34776;48.180;16.420;2023-05-29T10:07:22;4.13;;;2.97;;
48963;SDS011;34776;48.180;16.420;2023-05-29T10:09:52;5.35;;;3.45;;
48963;SDS011;34776;48.180;16.420;2023-05-29T10:12:23;5.72;;;3.20;;
48963;SDS011;34776;48.180;16.420;2023-05-29T10:14:51;4.72;;;3.22;;
48963;SDS011;34776;48.180;16.420;2023-05-29T10:17:22;5.95;;;2.88;;
48963;SDS011;34776;48.180;16.420;2023-05-29T10:19:50;3.30;;;2.78;;
48963;SDS011;34776;48.180;16.420;2023-05-29T10:22:20;4.45;;;2.72;;
48963;SDS011;34776;48.180;16.420;2023-05-29T10:24:49;5.65;;;3.15;;
48963;SDS011;34776;48.180;16.420;2023-05-29T10:27:16;4.78;;;2.63;;
48963;SDS011;34776;48.180;16.420;2023-05-29T10:29:43;5.70;;;3.58;;
48963;SDS011;34776;48.180;16.420;2023-05-29T10:32:20;4.10;;;3.00;;
48963;SDS011;34776;48.180;16.420;2023-05-29T10:37:44;5.95;;;2.92;;
48963;SDS011;34776;48.180;16.420;2023-05-29T10:40:15;7.03;;;3.20;;
48963;SDS011;34776;48.180;16.420;2023-05-29T10:42:47;6.25;;;2.90;;
48963;SDS011;34776;48.180;16.420;2023-05-29T10:50:41;3.63;;;2.78;;
48963;SDS011;34776;48.180;16.420;2023-05-29T10:53:08;8.98;;;3.25;;
48963;SDS011;34776;48.180;16.420;2023-05-29T10:55:37;6.78;;;2.90;;
48963;SDS011;34776;48.180;16.420;2023-05-29T10:58:07;4.82;;;3.10;;
48963;SDS011;34776;48.180;16.420;2023-05-29T11:00:33;8.70;;;3.00;;
48963;SDS011;34776;48.180;16.420;2023-05-29T11:03:04;9.10;;;2.63;;
48963;SDS011;34776;48.180;16.420;2023-05-29T11:05:32;9.27;;;2.97;;
48963;SDS011;34776;48.180;16.420;2023-05-29T11:07:58;8.77;;;3.03;;
48963;SDS011;34776;48.180;16.420;2023-05-29T11:10:40;6.25;;;2.50;;
48963;SDS011;34776;48.180;16.420;2023-05-29T11:13:10;11.50;;;2.65;;
48963;SDS011;34776;48.180;16.420;2023-05-29T11:15:48;8.50;;;3.03;;
48963;SDS011;34776;48.180;16.420;2023-05-29T11:18:42;4.05;;;3.08;;
48963;SDS011;34776;48.180;16.420;2023-05-29T11:21:13;5.60;;;2.97;;
48963;SDS011;34776;48.180;16.420;2023-05-29T11:23:50;4.82;;;3.00;;
48963;SDS011;34776;48.180;16.420;2023-05-29T11:26:17;4.72;;;2.85;;
48963;SDS011;34776;48.180;16.420;2023-05-29T11:28:43;6.18;;;3.00;;
48963;SDS011;34776;48.180;16.420;2023-05-29T11:31:08;5.97;;;3.03;;
48963;SDS011;34776;48.180;16.420;2023-05-29T11:33:34;5.93;;;2.92;;
48963;SDS011;34776;48.180;16.420;2023-05-29T11:36:04;4.32;;;2.95;;
48963;SDS011;34776;48.180;16.420;2023-05-29T11:38:30;4.00;;;3.08;;
48963;SDS011;34776;48.180;16.420;2023-05-29T11:40:56;5.57;;;2.80;;
48963;SDS011;34776;48.180;16.420;2023-05-29T11:43:24;3.20;;;2.63;;
48963;SDS011;34776;48.180;16.420;2023-05-29T11:45:50;7.95;;;3.20;;
48963;SDS011;34776;48.180;16.420;2023-05-29T11:48:15;4.07;;;3.05;;
48963;SDS011;34776;48.180;16.420;2023-05-29T11:50:41;6.32;;;3.10;;
48963;SDS011;34776;48.180;16.420;2023-05-29T11:53:07;5.07;;;3.08;;
48963;SDS011;34776;48.180;16.420;2023-05-29T11:55:35;5.68;;;3.30;;
48963;SDS011;34776;48.180;16.420;2023-05-29T11:58:01;6.35;;;3.00;;
48963;SDS011;34776;48.180;16.420;2023-05-29T12:00:34;5.70;;;2.80;;
48963;SDS011;34776;48.180;16.420;2023-05-29T12:03:01;4.80;;;3.15;;
48963;SDS011;34776;48.180;16.420;2023-05-29T12:05:29;5.10;;;2.92;;
48963;SDS011;34776;48.180;16.420;2023-05-29T12:07:55;3.47;;;2.80;;
48963;SDS011;34776;48.180;16.420;2023-05-29T12:10:22;8.88;;;4.00;;
48963;SDS011;34776;48.180;16.420;2023-05-29T12:12:58;7.47;;;3.13;;
48963;SDS011;34776;48.180;16.420;2023-05-29T12:15:27;4.97;;;2.80;;
48963;SDS011;34776;48.180;16.420;2023-05-29T12:17:53;3.83;;;2.85;;
48963;SDS011;34776;48.180;16.420;2023-05-29T12:20:22;8.43;;;3.30;;
48963;SDS011;34776;48.180;16.420;2023-05-29T12:22:48;4.70;;;3.40;;
48963;SDS011;34776;48.180;16.420;2023-05-29T12:25:18;4.03;;;3.20;;
48963;SDS011;34776;48.180;16.420;2023-05-29T12:27:46;4.10;;;2.67;;
48963;SDS011;34776;48.180;16.420;2023-05-29T12:30:13;3.70;;;2.60;;
48963;SDS011;34776;48.180;16.420;2023-05-29T12:32:40;4.75;;;2.85;;
48963;SDS011;34776;48.180;16.420;2023-05-29T12:35:14;6.47;;;2.92;;
48963;SDS011;34776;48.180;16.420;2023-05-29T12:38:00;7.40;;;3.38;;
48963;SDS011;34776;48.180;16.420;2023-05-29T12:40:30;3.03;;;2.42;;
48963;SDS011;34776;48.180;16.420;2023-05-29T12:43:00;3.83;;;2.90;;
48963;SDS011;34776;48.180;16.420;2023-05-29T12:45:28;5.03;;;3.17;;
48963;SDS011;34776;48.180;16.420;2023-05-29T12:47:59;3.72;;;2.90;;
48963;SDS011;34776;48.180;16.420;2023-05-29T12:50:35;3.35;;;2.80;;
48963;SDS011;34776;48.180;16.420;2023-05-29T12:55:39;4.28;;;2.90;;
48963;SDS011;34776;48.180;16.420;2023-05-29T12:58:07;3.35;;;3.00;;
48963;SDS011;34776;48.180;16.420;2023-05-29T13:00:34;6.03;;;3.08;;
48963;SDS011;34776;48.180;16.420;2023-05-29T13:03:00;5.20;;;3.10;;
48963;SDS011;34776;48.180;16.420;2023-05-29T13:05:26;4.18;;;3.20;;
48963;SDS011;34776;48.180;16.420;2023-05-29T13:07:52;4.90;;;2.92;;
48963;SDS011;34776;48.180;16.420;2023-05-29T13:10:18;4.93;;;3.30;;
48963;SDS011;34776;48.180;16.420;2023-05-29T13:12:44;6.10;;;3.35;;
48963;SDS011;34776;48.180;16.420;2023-05-29T13:15:11;5.35;;;3.50;;
48963;SDS011;34776;48.180;16.420;2023-05-29T13:17:38;7.00;;;3.45;;
48963;SDS011;34776;48.180;16.420;2023-05-29T13:20:10;5.93;;;3.28;;
48963;SDS011;34776;48.180;16.420;2023-05-29T13:22:40;4.50;;;3.28;;
48963;SDS011;34776;48.180;16.420;2023-05-29T13:25:07;6.68;;;3.40;;
48963;SDS011;34776;48.180;16.420;2023-05-29T13:27:35;5.47;;;3.13;;
48963;SDS011;34776;48.180;16.420;2023-05-29T13:30:02;4.55;;;3.00;;
48963;SDS011;34776;48.180;16.420;2023-05-29T13:32:28;4.28;;;3.28;;
48963;SDS011;34776;48.180;16.420;2023-05-29T13:34:54;4.93;;;3.05;;
48963;SDS011;34776;48.180;16.420;2023-05-29T13:37:19;6.63;;;3.05;;
48963;SDS011;34776;48.180;16.420;2023-05-29T13:39:44;7.18;;;3.10;;
48963;SDS011;34776;48.180;16.420;2023-05-29T13:42:10;6.32;;;3.15;;
48963;SDS011;34776;48.180;16.420;2023-05-29T13:44:36;6.65;;;3.10;;
48963;SDS011;34776;48.180;16.420;2023-05-29T13:47:01;4.53;;;2.95;;
48963;SDS011;34776;48.180;16.420;2023-05-29T13:49:27;6.20;;;3.25;;
48963;SDS011;34776;48.180;16.420;2023-05-29T13:51:52;4.45;;;3.15;;
48963;SDS011;34776;48.180;16.420;2023-05-29T13:54:17;5.40;;;3.03;;
48963;SDS011;34776;48.180;16.420;2023-05-29T13:56:43;7.25;;;3.00;;
48963;SDS011;34776;48.180;16.420;2023-05-29T13:59:09;3.83;;;3.42;;
48963;SDS011;34776;48.180;16.420;2023-05-29T14:01:34;9.10;;;3.47;;
48963;SDS011;34776;48.180;16.420;2023-05-29T14:03:59;6.30;;;3.28;;
48963;SDS011;34776;48.180;16.420;2023-05-29T14:06:25;7.97;;;3.00;;
48963;SDS011;34776;48.180;16.420;2023-05-29T14:08:51;4.72;;;3.10;;
48963;SDS011;34776;48.180;16.420;2023-05-29T14:11:17;7.93;;;3.20;;
48963;SDS011;34776;48.180;16.420;2023-05-29T14:13:42;6.80;;;3.40;;
48963;SDS011;34776;48.180;16.420;2023-05-29T14:16:07;8.00;;;3.42;;
48963;SDS011;34776;48.180;16.420;2023-05-29T14:18:33;5.65;;;3.30;;
48963;SDS011;34776;48.180;16.420;2023-05-29T14:20:58;3.42;;;2.80;;
48963;SDS011;34776;48.180;16.420;2023-05-29T14:23:23;7.72;;;3.47;;
48963;SDS011;34776;48.180;16.420;2023-05-29T14:25:48;4.40;;;3.30;;
48963;SDS011;34776;48.180;16.420;2023-05-29T14:28:16;5.95;;;2.95;;
48963;SDS011;34776;48.180;16.420;2023-05-29T14:30:43;7.22;;;3.80;;
48963;SDS011;34776;48.180;16.420;2023-05-29T14:33:09;4.35;;;3.17;;
48963;SDS011;34776;48.180;16.420;2023-05-29T14:35:34;6.15;;;3.15;;
48963;SDS011;34776;48.180;16.420;2023-05-29T14:38:00;4.78;;;3.58;;
48963;SDS011;34776;48.180;16.420;2023-05-29T14:40:26;5.30;;;3.90;;
48963;SDS011;34776;48.180;16.420;2023-05-29T14:42:51;4.00;;;3.15;;
48963;SDS011;34776;48.180;16.420;2023-05-29T14:45:16;4.97;;;3.33;;
48963;SDS011;34776;48.180;16.420;2023-05-29T14:47:42;5.70;;;3.05;;
48963;SDS011;34776;48.180;16.420;2023-05-29T14:50:07;5.15;;;3.08;;